Terminal Aerodrome Forecast
Issued by NWS Duluth, MN

Home | Current Version | Previous Version | Text Only | Print | Product List | Glossary On
Versions: 1 2 3 4 5 6 7 8 9 10 11 12 13 14 15 16 17 18 19 20 21 22 23 24 25 26 27
000
FTUS43 KDLH 302300 RRA
TAFDLH
TAF
KDLH 302347Z 3100/3124 20008KT P6SM BKN060 OVC100
     FM310400 26005KT P6SM VCSH SCT020 BKN060
     FM310900 31012KT P6SM SCT025 BKN110
     FM311700 34011G17KT P6SM BKN022 BKN035
      TEMPO 3117/3121 5SM -SHSN OVC018=

USA.gov is the U.S. government's official web portal to all federal, state and local government web resources and services.